»·PEaware :: N172TT KSMX-KBFL

N172TT :: KSMX-KBFL

FLIGHT INFORMATION

Flight Status: Arrived
Operator: Privately registered:
United States
More flights under this callsign
Pilot: Thomas T. (19955)
Aircraft: CESSNA 172 SKYHAWK
(C172)
More flights by this aircraft type
Origin: KSMX Santa Maria Pub/Capt Hancock
United States
Destination: KBFL Meadows
United States
More flights between these airports :: More routes between these airports
Route: +
File this flight plan on PilotEdge
Remarks: cat5
Altitude:
(Current/Filed)
0ft
Speed:
(Current/Filed)
0kts
Departed: 06-Aug-18 12:44 PM
Arrived: 06-Aug-18 01:36 PM
Distance/Time
Traveled:
76nm/0:52
Distance/Time
To Go:
Arrived

Flight Plot

Page will automatically refresh every two minutes.


Map Options




Map Legend


Flown Route
Filed Route
Departure Airport
Arrival Airport
Navaid (VOR, NDB)
Fix

Horizontal Profiles

Position Reports

Time Latitude Longitude Heading Altitude Ground
Speed
06-Aug-18 12:41 34.898967 -120.450021 152 265ft 1kts
06-Aug-18 12:42 34.896627 -120.447890 136 265ft 23kts
06-Aug-18 12:43 34.893706 -120.444953 181 265ft 10kts
06-Aug-18 12:44 34.893153 -120.444967 188 265ft 7kts
06-Aug-18 12:45 34.897010 -120.450476 323 394ft 72kts
06-Aug-18 12:46 34.913614 -120.464678 320 1359ft 71kts
06-Aug-18 12:47 34.933323 -120.480760 7 2035ft 102kts
06-Aug-18 12:48 34.946874 -120.452923 70 2623ft 99kts
06-Aug-18 12:49 34.955778 -120.421408 70 3187ft 100kts
06-Aug-18 12:50 34.964806 -120.389141 70 3687ft 101kts
06-Aug-18 12:51 34.973741 -120.356941 70 4185ft 98kts
06-Aug-18 12:52 34.984393 -120.327616 64 4672ft 96kts
06-Aug-18 12:53 34.995651 -120.298782 64 5167ft 94kts
06-Aug-18 12:54 35.006670 -120.270377 64 5663ft 92kts
06-Aug-18 12:55 35.017459 -120.242389 64 6162ft 90kts
06-Aug-18 12:56 35.028569 -120.213355 64 6442ft 105kts
06-Aug-18 12:57 35.041444 -120.179327 65 6500ft 114kts
06-Aug-18 12:58 35.054887 -120.143506 65 6500ft 116kts
06-Aug-18 12:59 35.068367 -120.107330 65 6500ft 117kts
06-Aug-18 13:00 35.081715 -120.071256 65 6500ft 117kts
06-Aug-18 13:01 35.095056 -120.034949 65 6499ft 117kts
06-Aug-18 13:02 35.108497 -119.998093 65 6142ft 131kts
06-Aug-18 13:03 35.123335 -119.957083 65 5641ft 132kts
06-Aug-18 13:04 35.137439 -119.917865 66 5520ft 120kts
06-Aug-18 13:05 35.150569 -119.881148 66 5519ft 118kts
06-Aug-18 13:06 35.164838 -119.844938 62 5519ft 118kts
06-Aug-18 13:07 35.179839 -119.809469 62 5519ft 118kts
06-Aug-18 13:08 35.194654 -119.774202 62 5518ft 115kts
06-Aug-18 13:09 35.209114 -119.739567 62 5517ft 114kts
06-Aug-18 13:10 35.223477 -119.704957 62 5517ft 114kts
06-Aug-18 13:11 35.237953 -119.669854 62 5368ft 124kts
06-Aug-18 13:12 35.254053 -119.630497 63 4801ft 131kts
06-Aug-18 13:13 35.270190 -119.590753 63 4220ft 130kts
06-Aug-18 13:14 35.286191 -119.551097 63 3661ft 129kts
06-Aug-18 13:15 35.301365 -119.514113 61 3516ft 113kts
06-Aug-18 13:16 35.315974 -119.480561 61 3515ft 110kts
06-Aug-18 13:17 35.330451 -119.447114 61 3429ft 112kts
06-Aug-18 13:18 35.343002 -119.413055 67 3127ft 108kts
06-Aug-18 13:19 35.352736 -119.378066 71 2826ft 105kts
06-Aug-18 13:20 35.360892 -119.346697 73 2464ft 101kts
06-Aug-18 13:21 35.369556 -119.313608 67 2035ft 98kts
06-Aug-18 13:22 35.376460 -119.285096 80 2028ft 85kts
06-Aug-18 13:23 35.380134 -119.256330 81 2027ft 85kts
06-Aug-18 13:24 35.383731 -119.227698 81 2027ft 85kts
06-Aug-18 13:25 35.387288 -119.198917 81 2027ft 85kts
06-Aug-18 13:26 35.390781 -119.170160 81 2027ft 85kts
06-Aug-18 13:27 35.407179 -119.155226 7 2028ft 84kts
06-Aug-18 13:28 35.430719 -119.152827 354 2029ft 86kts
06-Aug-18 13:29 35.449466 -119.140200 79 2025ft 93kts
06-Aug-18 13:30 35.443902 -119.108854 125 1895ft 100kts
06-Aug-18 13:31 35.426844 -119.085804 133 1772ft 82kts
06-Aug-18 13:32 35.412038 -119.066529 133 1627ft 76kts
06-Aug-18 13:33 35.397464 -119.047681 133 1409ft 78kts
06-Aug-18 13:34 35.401052 -119.027496 9 1144ft 74kts
06-Aug-18 13:35 35.417790 -119.036940 314 871ft 68kts
06-Aug-18 13:36 35.431607 -119.053632 315 526ft 66kts
06-Aug-18 13:37 35.436203 -119.057858 54 492ft 5kts
06-Aug-18 13:38 35.434705 -119.054747 78 493ft 12kts

Navigation Log

Ident Type
1. KSMX Airport
2. KBFL Airport